This is the latest recevied weather packets stored in our database for station/object W4SMH. If no packets are shown the sender has not sent any weather packets the latest 10 day(s).
| Time | Temp. | Humidity | Pressure | Rain* | Wind** | Luminosity | Snow |
|---|---|---|---|---|---|---|---|
| 1777959766 | 14.44° C | 48% | 1000.5 hPa | 0 mm | - | 0 W/m² | - |
| 1777958813 | 15° C | 47% | 1000.1 hPa | 0 mm | - | 0 W/m² | - |
| 1777958789 | 15° C | 47% | 1000.3 hPa | 0 mm | - | 0 W/m² | - |
| 1777958610 | 15° C | 46% | 1000.1 hPa | 0 mm | - | 0 W/m² | - |
| 1777958044 | 15° C | 46% | 1000 hPa | 0 mm | - | 0 W/m² | - |
| 1777957705 | 15° C | 46% | 1000 hPa | 0 mm | - | 0 W/m² | - |
| 1777957673 | 15° C | 47% | 1000 hPa | 0 mm | - | 0 W/m² | - |
| 1777957461 | 15.56° C | 46% | 999.9 hPa | 0 mm | - | 0 W/m² | - |
| 1777955721 | 15.56° C | 49% | 999.7 hPa | 0 mm | - | 0 W/m² | - |
| 1777954380 | 16.11° C | 46% | 999.3 hPa | 0 mm | - | 0 W/m² | - |
| 1777954326 | 16.11° C | 47% | 999.2 hPa | 0 mm | - | 0 W/m² | - |
| 1777954297 | 16.11° C | 46% | 999.2 hPa | 0 mm | - | 0 W/m² | - |
| 1777954272 | 16.11° C | 47% | 999.1 hPa | 0 mm | - | 0 W/m² | - |
| 1777953784 | 16.11° C | 46% | 999 hPa | 0 mm | - | 0 W/m² | - |
| 1777953223 | 16.11° C | 45% | 998.9 hPa | 0 mm | - | 0 W/m² | - |
| 1777952350 | 16.67° C | 45% | 998.7 hPa | 0 mm | - | 0 W/m² | - |
| 1777952295 | 16.67° C | 45% | 998.7 hPa | 0 mm | - | 0 W/m² | - |
| 1777952265 | 16.67° C | 44% | 998.8 hPa | 0 mm | - | 0 W/m² | - |
| 1777951535 | 8.33° C | 64% | 1010.3 hPa | 0 mm | - | 39 W/m² | - |
| 1777951292 | 17.22° C | 46% | 998.9 hPa | 0 mm | - | 0 W/m² | - |
| 1777951081 | 17.22° C | 44% | 998.9 hPa | 0 mm | - | 0 W/m² | - |
| 1777950633 | 8.33° C | 64% | 1010.1 hPa | 0 mm | - | 11 W/m² | - |
| 1777950516 | 17.78° C | 46% | 999 hPa | 0 mm | - | 0 W/m² | - |
| 1777950482 | 17.78° C | 47% | 999 hPa | 0 mm | - | 0 W/m² | - |
| 1777950426 | 17.78° C | 47% | 999.1 hPa | 0 mm | - | 0 W/m² | - |
* Rain latest hour (hover to see other rain measurements)
** Current wind speed in m/s (hover to see current wind gust speed)